Time;durP1;ratioP1;P1;durP2;ratioP2;P2;SDS_P1;SDS_P2;PMS_P1;PMS_P2;Temp;Humidity;BMP_temperature;BMP_pressure;BME280_temperature;BME280_humidity;BME280_pressure;Samples;Min_cycle;Max_cycle;Signal;HPM_P1;HPM_P2
2022/09/29 00:00:55;;;;;;;4.43;2.83;;;;;;;16.26;100.00;63685.72;5046959;28;20538;-77
2022/09/29 00:03:24;;;;;;;6.60;2.97;;;;;;;16.34;100.00;63686.34;5045992;28;20378;-78
2022/09/29 00:05:52;;;;;;;5.63;2.75;;;;;;;16.34;100.00;63686.88;5045004;28;20236;-78
2022/09/29 00:08:21;;;;;;;2.65;2.20;;;;;;;16.16;100.00;63671.22;5047556;28;20229;-77
2022/09/29 00:10:48;;;;;;;5.15;2.95;;;;;;;16.10;100.00;63659.34;5047687;28;20197;-78
2022/09/29 00:13:16;;;;;;;5.28;2.38;;;;;;;16.10;100.00;63661.91;5047734;28;20442;-78
2022/09/29 00:15:43;;;;;;;3.40;2.78;;;;;;;16.12;100.00;63663.97;5042104;28;20199;-79
2022/09/29 00:18:11;;;;;;;3.42;1.98;;;;;;;16.06;100.00;63655.69;5029162;28;20260;-78
2022/09/29 00:20:39;;;;;;;4.15;1.90;;;;;;;16.00;100.00;63654.06;5044719;28;20422;-77
2022/09/29 00:23:06;;;;;;;3.08;2.00;;;;;;;15.85;100.00;63635.88;5046739;28;20213;-78
2022/09/29 00:25:33;;;;;;;4.50;2.92;;;;;;;15.71;100.00;63624.44;5044940;28;20229;-78
2022/09/29 00:28:00;;;;;;;3.58;2.47;;;;;;;15.60;100.00;63605.28;5048408;28;20218;-78
2022/09/29 00:30:28;;;;;;;5.15;3.35;;;;;;;15.51;100.00;63601.06;5048122;28;20231;-78
2022/09/29 00:32:54;;;;;;;3.03;2.78;;;;;;;15.46;100.00;63595.84;5047271;28;20555;-77
2022/09/29 00:35:21;;;;;;;5.60;2.65;;;;;;;15.40;100.00;63587.06;5031977;28;20217;-78
2022/09/29 00:37:49;;;;;;;3.67;3.00;;;;;;;15.34;100.00;63583.38;5040452;28;20228;-77
2022/09/29 00:40:17;;;;;;;4.43;2.53;;;;;;;15.34;100.00;63585.94;5046311;28;20244;-77
2022/09/29 00:42:44;;;;;;;4.53;2.55;;;;;;;15.32;100.00;63578.22;5050337;28;20247;-77
2022/09/29 00:45:17;;;;;;;2.75;2.53;;;;;;;15.32;100.00;63581.31;5045033;28;20244;-78
2022/09/29 00:47:49;;;;;;;3.85;2.45;;;;;;;15.28;100.00;63579.72;5046334;28;20237;-78
2022/09/29 00:50:19;;;;;;;2.35;2.17;;;;;;;15.26;100.00;63571.97;5046486;28;20399;-77
2022/09/29 00:52:51;;;;;;;5.97;2.88;;;;;;;15.27;100.00;63575.59;5042868;28;20271;-77
2022/09/29 00:55:24;;;;;;;2.13;2.03;;;;;;;15.33;100.00;63581.81;5041600;28;20198;-78
2022/09/29 00:57:57;;;;;;;3.05;2.33;;;;;;;15.28;100.00;63579.19;5043338;28;20232;-77
2022/09/29 01:00:24;;;;;;;2.55;2.35;;;;;;;15.24;100.00;63575.53;5046070;28;20264;-77
2022/09/29 01:02:55;;;;;;;2.58;2.45;;;;;;;15.23;100.00;63568.84;5046482;28;20301;-78
2022/09/29 01:05:26;;;;;;;4.82;3.00;;;;;;;15.16;100.00;63564.66;5044676;28;20409;-78
2022/09/29 01:07:54;;;;;;;2.75;2.55;;;;;;;15.20;100.00;63570.88;5046029;28;20226;-78
2022/09/29 01:10:23;;;;;;;3.67;2.20;;;;;;;15.14;100.00;63562.06;5047477;28;20201;-78
2022/09/29 01:12:50;;;;;;;6.72;2.22;;;;;;;15.15;100.00;63558.50;5045823;28;20285;-78
2022/09/29 01:15:21;;;;;;;2.65;2.45;;;;;;;15.19;100.00;63567.25;5047170;28;20519;-78
2022/09/29 01:17:48;;;;;;;3.33;2.05;;;;;;;15.22;100.00;63567.81;5045949;28;20312;-77
2022/09/29 01:20:19;;;;;;;4.72;2.25;;;;;;;15.20;100.00;63565.75;5043881;28;20209;-77
2022/09/29 01:23:28;;;;;;;1.92;1.83;;;;;;;15.23;100.00;63569.38;5044153;28;20218;-77
2022/09/29 01:26:36;;;;;;;3.67;2.47;;;;;;;15.02;100.00;63550.66;5017775;28;20248;-78
2022/09/29 01:29:53;;;;;;;4.25;2.35;;;;;;;14.96;100.00;63541.84;5026267;28;20268;-77
2022/09/29 01:32:31;;;;;;;2.03;1.92;;;;;;;14.96;100.00;63544.41;5031895;28;20222;-77
2022/09/29 01:35:07;;;;;;;2.50;2.30;;;;;;;14.91;100.00;63539.22;5025323;28;20189;-77
2022/09/29 01:37:49;;;;;;;3.22;2.60;;;;;;;14.97;100.00;63548.00;5038884;28;20221;-78
2022/09/29 01:40:18;;;;;;;2.90;2.50;;;;;;;14.93;100.00;63543.84;5042832;28;20432;-77
2022/09/29 01:42:55;;;;;;;2.80;2.60;;;;;;;14.94;100.00;63537.19;5045316;28;20217;-77
2022/09/29 01:45:27;;;;;;;2.42;2.22;;;;;;;14.99;100.00;63544.97;5047568;28;20221;-78
2022/09/29 01:48:01;;;;;;;2.42;2.33;;;;;;;14.94;100.00;63539.75;5043430;28;20308;-78
2022/09/29 01:50:32;;;;;;;3.58;2.55;;;;;;;14.96;100.00;63541.84;5044051;28;20246;-78
2022/09/29 01:53:04;;;;;;;2.40;2.17;;;;;;;14.87;100.00;63534.53;5044963;28;20213;-78
2022/09/29 01:55:33;;;;;;;5.00;2.65;;;;;;;14.90;100.00;63535.09;5043510;28;20202;-77
2022/09/29 01:58:04;;;;;;;2.72;2.60;;;;;;;14.93;100.00;63540.75;5044305;28;20218;-77
2022/09/29 02:00:35;;;;;;;3.42;2.65;;;;;;;14.85;100.00;63532.97;5045198;28;20247;-76
2022/09/29 02:03:10;;;;;;;2.50;2.30;;;;;;;14.82;100.00;63534.97;5044504;28;20225;-77
2022/09/29 02:05:42;;;;;;;2.20;2.10;;;;;;;14.83;100.00;63530.38;5036758;28;20309;-76
2022/09/29 02:08:14;;;;;;;4.18;2.33;;;;;;;14.81;100.00;63530.84;5029767;28;20277;-77
2022/09/29 02:10:45;;;;;;;6.43;2.20;;;;;;;14.83;100.00;63536.03;5042029;28;20208;-77
2022/09/29 02:13:15;;;;;;;4.28;2.65;;;;;;;14.84;100.00;63528.88;5050408;28;20221;-77
2022/09/29 02:15:46;;;;;;;4.90;2.25;;;;;;;14.76;100.00;63521.06;5052247;28;20217;-78
2022/09/29 02:18:21;;;;;;;3.50;2.05;;;;;;;14.75;100.00;63522.59;5049855;28;20226;-78
2022/09/29 02:20:49;;;;;;;5.28;2.50;;;;;;;14.76;100.00;63520.53;5047136;28;20198;-77
2022/09/29 02:23:17;;;;;;;3.38;2.63;;;;;;;14.76;100.00;63523.63;5052900;28;20539;-77
2022/09/29 02:25:44;;;;;;;5.60;2.33;;;;;;;14.76;100.00;63523.09;5047060;28;20238;-77
2022/09/29 02:28:12;;;;;;;4.13;3.03;;;;;;;14.77;100.00;63522.09;5047823;28;20222;-77
2022/09/29 02:30:40;;;;;;;2.53;2.42;;;;;;;14.90;100.00;63540.75;5048051;28;20216;-77
2022/09/29 02:33:19;;;;;;;6.72;2.60;;;;;;;14.77;100.00;63522.09;5048028;28;20485;-77
2022/09/29 02:35:55;;;;;;;2.47;2.33;;;;;;;14.68;100.00;63517.38;5047631;28;20190;-77
2022/09/29 02:38:28;;;;;;;4.88;2.60;;;;;;;14.66;100.00;63510.69;5034064;28;20413;-78
2022/09/29 02:41:01;;;;;;;2.40;2.20;;;;;;;14.63;100.00;63512.69;5033392;28;20511;-77
2022/09/29 02:43:44;;;;;;;4.50;2.90;;;;;;;14.57;100.00;63500.81;5048075;28;20224;-77
2022/09/29 02:46:30;;;;;;;3.95;2.92;;;;;;;14.60;100.00;63507.00;5048700;28;20225;-78
2022/09/29 02:49:25;;;;;;;4.60;2.88;;;;;;;14.62;100.00;63509.09;5046127;28;20206;-77
2022/09/29 02:51:55;;;;;;;4.22;2.70;;;;;;;14.63;100.00;63512.69;5047215;28;20218;-78
2022/09/29 02:54:36;;;;;;;4.40;2.95;;;;;;;14.55;100.00;63499.25;5050595;28;20198;-77
2022/09/29 02:57:16;;;;;;;2.72;2.63;;;;;;;14.58;100.00;63502.34;5036970;28;20223;-78
2022/09/29 02:59:53;;;;;;;8.93;3.53;;;;;;;14.60;100.00;63507.00;5048551;28;20202;-77
2022/09/29 03:02:24;;;;;;;6.28;2.65;;;;;;;14.60;100.00;63509.56;5050739;28;20217;-78
2022/09/29 03:04:53;;;;;;;7.63;2.60;;;;;;;14.56;100.00;63500.31;5048108;28;20202;-78
2022/09/29 03:07:20;;;;;;;3.72;2.67;;;;;;;14.66;100.00;63510.69;5045538;28;20241;-78
2022/09/29 03:09:47;;;;;;;10.00;2.72;;;;;;;14.62;100.00;63503.44;5037041;28;20206;-77
2022/09/29 03:12:14;;;;;;;5.60;3.08;;;;;;;14.58;100.00;63506.97;5050374;28;20249;-76
2022/09/29 03:14:40;;;;;;;4.68;2.88;;;;;;;14.59;100.00;63503.41;5031657;28;20198;-77
2022/09/29 03:17:07;;;;;;;3.22;3.03;;;;;;;14.44;100.00;63487.31;5046470;28;20234;-77
2022/09/29 03:19:34;;;;;;;3.50;3.20;;;;;;;14.34;100.00;63484.63;5049519;28;20252;-77
2022/09/29 03:22:02;;;;;;;6.78;3.20;;;;;;;14.28;100.00;63478.91;5046740;28;20255;-78
2022/09/29 03:24:30;;;;;;;6.95;3.45;;;;;;;14.27;100.00;63472.72;5046372;28;20213;-79
2022/09/29 03:26:57;;;;;;;4.03;3.10;;;;;;;14.30;100.00;63473.28;5045735;28;20300;-77
2022/09/29 03:29:24;;;;;;;6.70;3.05;;;;;;;14.30;100.00;63472.78;5050464;28;20206;-77
2022/09/29 03:31:51;;;;;;;3.65;3.33;;;;;;;14.42;100.00;63485.75;5046127;28;20233;-77
2022/09/29 03:34:18;;;;;;;5.43;3.03;;;;;;;14.60;100.00;63504.44;5048899;28;20269;-77
2022/09/29 03:36:44;;;;;;;6.05;3.05;;;;;;;14.63;100.00;63504.47;5049804;28;20248;-78
2022/09/29 03:39:13;;;;;;;6.28;3.08;;;;;;;14.72;100.00;63522.03;5046716;28;20193;-76
2022/09/29 03:41:40;;;;;;;2.90;2.53;;;;;;;14.74;100.00;63521.53;5045568;28;20205;-77
2022/09/29 03:44:07;;;;;;;3.53;3.13;;;;;;;14.79;100.00;63526.75;5049064;28;20198;-78
2022/09/29 03:46:34;;;;;;;5.38;2.78;;;;;;;14.76;100.00;63520.53;5047348;28;20395;-77
2022/09/29 03:49:01;;;;;;;4.78;3.15;;;;;;;14.79;100.00;63526.75;5048999;28;20213;-77
2022/09/29 03:51:28;;;;;;;5.63;3.05;;;;;;;14.80;100.00;63525.22;5047340;28;20220;-78
2022/09/29 03:53:55;;;;;;;3.80;2.90;;;;;;;14.81;100.00;63526.25;5047499;28;20284;-78
2022/09/29 03:56:23;;;;;;;6.43;3.75;;;;;;;14.71;100.00;63515.34;5044651;28;20206;-79
2022/09/29 03:58:50;;;;;;;3.88;3.15;;;;;;;14.62;100.00;63506.53;5049391;28;20502;-78
2022/09/29 04:01:17;;;;;;;5.75;3.55;;;;;;;14.58;100.00;63504.91;5048016;28;20220;-77
2022/09/29 04:03:44;;;;;;;5.00;3.88;;;;;;;14.48;100.00;63494.53;5045899;28;20572;-77
2022/09/29 04:06:11;;;;;;;5.88;3.22;;;;;;;14.37;100.00;63477.47;5044250;28;20233;-77
2022/09/29 04:08:38;;;;;;;5.88;3.28;;;;;;;14.29;100.00;63474.81;5049113;28;20245;-78
2022/09/29 04:11:06;;;;;;;4.43;3.92;;;;;;;14.18;100.00;63462.84;5042703;28;20202;-78
2022/09/29 04:13:34;;;;;;;6.53;4.03;;;;;;;14.16;100.00;63460.78;5042005;28;20281;-79
2022/09/29 04:16:02;;;;;;;9.23;4.07;;;;;;;14.12;100.00;63454.56;5032585;28;20255;-78
2022/09/29 04:18:30;;;;;;;6.15;3.83;;;;;;;14.07;100.00;63451.41;5047805;28;20236;-77
2022/09/29 04:20:59;;;;;;;6.07;3.28;;;;;;;14.11;100.00;63458.16;5048836;28;20198;-78
2022/09/29 04:23:28;;;;;;;3.72;3.42;;;;;;;14.04;100.00;63450.88;5042034;28;20224;-78
2022/09/29 04:25:55;;;;;;;3.50;3.22;;;;;;;14.02;100.00;63446.22;5034739;28;20440;-78
2022/09/29 04:28:22;;;;;;;7.07;4.72;;;;;;;14.10;100.00;63454.56;5040425;28;20429;-78
2022/09/29 04:30:50;;;;;;;4.32;3.55;;;;;;;13.94;100.00;63436.41;5047265;28;20198;-80
2022/09/29 04:33:17;;;;;;;6.70;4.35;;;;;;;13.89;100.00;63426.09;5037812;28;20249;-80
2022/09/29 04:35:45;;;;;;;7.40;4.75;;;;;;;13.92;100.00;63438.94;5048011;28;20214;-78
2022/09/29 04:38:12;;;;;;;8.25;5.03;;;;;;;13.94;100.00;63435.91;5039431;28;20241;-78
2022/09/29 04:40:39;;;;;;;6.28;3.97;;;;;;;13.79;100.00;63425.44;5040692;28;20198;-78
2022/09/29 04:43:06;;;;;;;9.57;3.90;;;;;;;13.85;100.00;63427.06;5043303;28;20272;-78
2022/09/29 04:45:33;;;;;;;3.65;3.35;;;;;;;13.92;100.00;63433.81;5046063;28;20198;-78
2022/09/29 04:48:01;;;;;;;8.30;4.13;;;;;;;13.92;100.00;63441.50;5044717;28;20236;-78
2022/09/29 04:50:28;;;;;;;5.13;3.67;;;;;;;14.03;100.00;63447.28;5044056;28;20202;-77
2022/09/29 04:52:55;;;;;;;13.65;5.15;;;;;;;14.03;100.00;63442.66;5043114;28;20217;-78
2022/09/29 04:55:22;;;;;;;5.40;5.00;;;;;;;13.96;100.00;63437.97;5042418;28;20289;-76
2022/09/29 04:57:49;;;;;;;3.72;3.38;;;;;;;13.98;100.00;63440.03;5046052;28;20210;-77
2022/09/29 05:00:16;;;;;;;5.20;4.03;;;;;;;13.89;100.00;63435.84;5044675;28;20201;-78
2022/09/29 05:02:43;;;;;;;5.45;4.60;;;;;;;13.90;100.00;63427.16;5037452;28;20222;-78
2022/09/29 05:05:12;;;;;;;4.05;3.63;;;;;;;13.98;100.00;63442.09;5035423;28;20533;-76
2022/09/29 05:07:40;;;;;;;8.48;4.68;;;;;;;14.07;100.00;63446.31;5048215;28;20253;-78
2022/09/29 05:10:08;;;;;;;7.32;4.30;;;;;;;14.16;100.00;63458.22;5042408;28;20427;-77
2022/09/29 05:12:35;;;;;;;6.47;4.18;;;;;;;14.23;100.00;63468.03;5046173;28;20225;-78
2022/09/29 05:15:03;;;;;;;5.80;3.53;;;;;;;14.31;100.00;63474.31;5041952;28;20198;-78
2022/09/29 05:17:30;;;;;;;3.95;3.65;;;;;;;14.37;100.00;63483.13;5042664;28;20224;-79
2022/09/29 05:19:57;;;;;;;5.57;3.33;;;;;;;14.42;100.00;63485.22;5040627;28;20257;-78
2022/09/29 05:22:26;;;;;;;4.05;3.40;;;;;;;14.66;100.00;63512.72;5049021;28;20589;-78
2022/09/29 05:24:53;;;;;;;3.28;2.97;;;;;;;14.76;100.00;63528.75;5026868;28;20198;-77
2022/09/29 05:27:21;;;;;;;6.05;3.28;;;;;;;14.84;100.00;63531.44;5029977;28;20256;-78
2022/09/29 05:29:48;;;;;;;3.03;2.83;;;;;;;15.03;100.00;63554.25;5043284;28;20515;-79
2022/09/29 05:32:15;;;;;;;4.45;3.50;;;;;;;15.17;100.00;63565.69;5046266;28;20248;-76
2022/09/29 05:34:42;;;;;;;3.92;2.97;;;;;;;15.33;100.00;63581.81;5046112;28;20221;-78
2022/09/29 05:37:09;;;;;;;3.55;3.22;;;;;;;15.50;100.00;63602.06;5046798;28;20218;-77
2022/09/29 05:39:38;;;;;;;3.90;2.70;;;;;;;15.64;100.00;63614.06;5051508;28;20214;-79
2022/09/29 05:42:06;;;;;;;5.45;2.88;;;;;;;15.78;100.00;63628.63;5050720;28;20600;-78
2022/09/29 05:44:33;;;;;;;5.38;2.67;;;;;;;15.93;100.00;63641.63;5050452;28;20431;-78
2022/09/29 05:47:00;;;;;;;7.38;3.03;;;;;;;16.11;100.00;63662.94;5053929;28;20237;-79
2022/09/29 05:49:27;;;;;;;3.33;2.55;;;;;;;16.21;100.00;63673.31;5049758;28;20363;-78
2022/09/29 05:51:54;;;;;;;2.40;2.30;;;;;;;16.42;100.00;63692.59;5050236;28;20239;-77
2022/09/29 05:54:21;;;;;;;7.10;3.25;;;;;;;16.52;100.00;63705.59;5052517;28;20202;-78
2022/09/29 05:56:49;;;;;;;2.50;2.30;;;;;;;16.68;100.00;63719.69;5049501;28;20226;-77
2022/09/29 05:59:16;;;;;;;2.20;2.10;;;;;;;16.81;100.00;63735.25;5041802;28;20495;-77
2022/09/29 06:01:43;;;;;;;2.88;2.40;;;;;;;16.88;99.18;63737.38;5049335;28;20225;-78
2022/09/29 06:04:10;;;;;;;5.65;2.88;;;;;;;16.90;100.00;63749.75;5029870;28;20486;-77
2022/09/29 06:06:39;;;;;;;4.40;2.83;;;;;;;17.12;99.72;63768.03;5047732;28;20502;-79
2022/09/29 06:09:06;;;;;;;3.50;2.75;;;;;;;17.20;99.21;63773.28;5052377;28;20213;-78
2022/09/29 06:11:33;;;;;;;3.95;3.10;;;;;;;16.99;99.97;63754.50;5048429;28;20237;-77
2022/09/29 06:14:02;;;;;;;3.72;3.42;;;;;;;16.57;100.00;63712.84;5049998;28;20202;-78
2022/09/29 06:16:31;;;;;;;4.70;3.75;;;;;;;16.56;100.00;63709.25;5052265;28;20260;-78
2022/09/29 06:19:00;;;;;;;7.22;3.22;;;;;;;16.49;100.00;63702.47;5050776;28;20190;-78
2022/09/29 06:21:28;;;;;;;6.00;3.78;;;;;;;16.51;100.00;63699.41;5045645;28;20488;-79
2022/09/29 06:23:56;;;;;;;9.93;3.90;;;;;;;16.49;100.00;63704.53;5049025;28;20224;-78
2022/09/29 06:26:25;;;;;;;13.52;5.05;;;;;;;16.61;100.00;63714.44;5047323;28;20197;-75
2022/09/29 06:28:53;;;;;;;5.88;3.67;;;;;;;16.78;100.00;63729.56;5045896;28;20280;-78
2022/09/29 06:31:23;;;;;;;4.07;3.05;;;;;;;17.08;100.00;63761.28;5048083;28;20232;-76
2022/09/29 06:33:50;;;;;;;4.15;3.47;;;;;;;17.13;98.92;63769.09;5050758;28;20221;-77
2022/09/29 06:39:04;;;;;;;4.97;3.42;;;;;;;17.24;97.99;63777.44;5049768;28;20232;-77
2022/09/29 06:41:31;;;;;;;5.53;2.83;;;;;;;17.45;95.47;63798.78;5056264;28;20200;-76
2022/09/29 06:43:58;;;;;;;6.60;3.50;;;;;;;17.62;91.49;63816.50;5050971;28;20220;-77
2022/09/29 06:46:27;;;;;;;4.13;2.38;;;;;;;17.83;90.45;63840.94;5050767;28;20202;-77
2022/09/29 06:48:54;;;;;;;7.72;2.65;;;;;;;18.02;90.10;63858.16;5045415;28;20252;-79
2022/09/29 06:51:22;;;;;;;5.38;2.80;;;;;;;17.99;85.21;63855.56;5053078;28;20232;-78
2022/09/29 06:53:49;;;;;;;2.95;2.75;;;;;;;17.86;87.40;63844.56;5050837;28;20514;-77
2022/09/29 06:56:17;;;;;;;4.32;2.90;;;;;;;18.00;87.74;63861.75;5049270;28;20247;-77
2022/09/29 06:58:44;;;;;;;6.50;3.28;;;;;;;18.28;88.84;63890.91;5051707;28;20271;-77
2022/09/29 07:01:12;;;;;;;10.15;3.30;;;;;;;18.47;88.36;63909.69;5049744;28;20240;-78
2022/09/29 07:03:41;;;;;;;5.88;3.67;;;;;;;18.75;87.21;63934.25;5047167;28;20218;-78
2022/09/29 07:06:09;;;;;;;8.05;3.42;;;;;;;18.81;83.04;63945.13;5048725;28;20242;-76
2022/09/29 07:08:38;;;;;;;6.70;3.25;;;;;;;18.76;81.82;63939.94;5047530;28;20439;-77
2022/09/29 07:11:05;;;;;;;6.05;2.83;;;;;;;18.80;81.75;63944.59;5045140;28;20632;-77
2022/09/29 07:13:32;;;;;;;7.25;2.78;;;;;;;18.74;80.83;63935.25;5045098;28;20218;-77
2022/09/29 07:16:05;;;;;;;5.07;3.08;;;;;;;18.36;82.58;63896.66;5041817;28;20197;-77
2022/09/29 07:18:33;;;;;;;6.97;3.45;;;;;;;18.62;83.96;63923.25;5047582;28;20277;-78
2022/09/29 07:21:01;;;;;;;10.70;3.28;;;;;;;18.78;82.87;63939.41;5049684;28;20200;-77
2022/09/29 07:23:28;;;;;;;4.30;2.60;;;;;;;18.70;82.63;63934.19;5046297;28;20221;-76
2022/09/29 07:25:56;;;;;;;4.53;2.60;;;;;;;18.73;81.87;63936.78;5048066;28;20247;-78
2022/09/29 07:28:24;;;;;;;5.70;3.15;;;;;;;18.86;82.30;63948.28;5050286;28;20228;-77
2022/09/29 07:30:59;;;;;;;8.88;3.50;;;;;;;18.93;81.75;63958.16;5036875;28;20218;-78
2022/09/29 07:33:26;;;;;;;7.07;3.08;;;;;;;19.29;80.72;63992.59;5039142;28;20225;-79
2022/09/29 07:35:54;;;;;;;4.28;3.70;;;;;;;19.59;77.67;64021.31;5040961;28;20197;-78
2022/09/29 07:38:22;;;;;;;3.55;3.35;;;;;;;19.71;77.24;64035.91;5037680;28;20278;-80
2022/09/29 07:40:49;;;;;;;5.47;2.67;;;;;;;19.86;73.54;64052.06;5040720;28;20425;-78
2022/09/29 07:43:16;;;;;;;6.93;2.90;;;;;;;19.95;73.35;64060.94;5040338;28;20225;-78
2022/09/29 07:45:47;;;;;;;7.00;3.13;;;;;;;20.14;74.47;64078.16;5041666;28;20198;-79
2022/09/29 07:48:14;;;;;;;8.55;3.40;;;;;;;20.25;74.67;64094.84;5041224;28;20238;-79
2022/09/29 07:50:41;;;;;;;6.70;4.32;;;;;;;19.96;71.51;64059.38;5042491;28;20243;-80
2022/09/29 07:53:08;;;;;;;5.95;3.13;;;;;;;20.06;71.92;64075.50;5045769;28;20223;-80
2022/09/29 07:55:37;;;;;;;3.33;3.00;;;;;;;20.25;72.36;64090.19;5042223;28;20209;-80
2022/09/29 07:58:05;;;;;;;3.60;3.30;;;;;;;20.38;70.18;64108.41;5038423;28;20237;-79
2022/09/29 08:00:32;;;;;;;5.78;2.63;;;;;;;20.31;68.74;64095.94;5038815;28;20553;-80
2022/09/29 08:03:02;;;;;;;8.60;3.33;;;;;;;20.24;68.94;64096.38;5042753;28;20236;-80
2022/09/29 08:05:32;;;;;;;5.60;3.10;;;;;;;20.14;70.18;64080.75;5032768;28;20205;-79
2022/09/29 08:07:59;;;;;;;6.22;3.20;;;;;;;19.83;72.09;64048.41;5041102;28;20284;-79
2022/09/29 08:10:27;;;;;;;4.43;3.42;;;;;;;20.05;74.38;64073.94;5035406;28;20202;-80
2022/09/29 08:12:56;;;;;;;4.43;2.63;;;;;;;19.93;72.09;64059.34;5040770;28;20225;-79
2022/09/29 08:15:23;;;;;;;9.48;2.92;;;;;;;19.99;72.91;64065.09;5039322;28;20206;-79
2022/09/29 08:17:53;;;;;;;6.85;3.33;;;;;;;19.69;73.05;64039.47;5040284;28;20452;-79
2022/09/29 08:20:20;;;;;;;5.75;3.30;;;;;;;19.53;74.17;64020.22;5040971;28;20201;-78
2022/09/29 08:22:47;;;;;;;5.72;3.38;;;;;;;19.36;76.29;64003.00;5034515;28;20236;-79
2022/09/29 08:25:15;;;;;;;8.65;3.28;;;;;;;19.55;75.40;64022.81;5041911;28;20248;-78
2022/09/29 08:27:42;;;;;;;12.60;3.97;;;;;;;19.36;75.74;63994.75;5035007;28;20244;-79
2022/09/29 08:30:12;;;;;;;7.13;2.90;;;;;;;19.43;76.32;64007.22;5035780;28;20198;-79
2022/09/29 08:32:39;;;;;;;8.82;3.58;;;;;;;19.51;74.94;64016.09;5041495;28;20403;-78
2022/09/29 08:35:07;;;;;;;9.77;3.17;;;;;;;19.17;78.24;63980.59;5037999;28;20233;-78
2022/09/29 08:37:34;;;;;;;7.50;3.15;;;;;;;19.29;79.44;63990.00;5036986;28;20280;-78
2022/09/29 08:40:01;;;;;;;7.13;3.20;;;;;;;19.48;79.13;64015.53;5039380;28;20285;-78
2022/09/29 08:42:48;;;;;;;3.78;2.90;;;;;;;19.58;75.95;64019.75;5039576;28;20229;-78
2022/09/29 08:45:30;;;;;;;6.35;2.85;;;;;;;19.55;74.83;64017.66;5030280;28;20274;-76
2022/09/29 08:48:05;;;;;;;5.22;2.60;;;;;;;19.48;77.29;64009.84;5040280;28;20347;-78
2022/09/29 08:50:38;;;;;;;6.50;3.20;;;;;;;19.70;73.88;64032.25;5044484;28;20197;-78
2022/09/29 08:53:09;;;;;;;4.60;3.10;;;;;;;19.87;74.60;64055.69;5042259;28;20237;-77
2022/09/29 08:55:43;;;;;;;6.85;3.05;;;;;;;20.02;74.22;64073.41;5040670;28;20212;-78
2022/09/29 08:58:13;;;;;;;8.32;3.22;;;;;;;20.20;72.25;64087.56;5041512;28;20217;-78
2022/09/29 09:00:45;;;;;;;5.43;2.75;;;;;;;20.31;69.73;64104.19;5042418;28;20208;-77
2022/09/29 09:03:41;;;;;;;6.03;2.65;;;;;;;20.46;68.42;64111.56;5046515;28;20567;-78
2022/09/29 09:06:14;;;;;;;3.67;3.13;;;;;;;20.45;74.00;64118.81;5041408;28;20421;-78
2022/09/29 09:08:53;;;;;;;6.05;2.53;;;;;;;20.52;71.08;64123.00;5034477;28;20228;-79
2022/09/29 09:11:33;;;;;;;3.63;2.72;;;;;;;20.58;70.48;64124.09;5035477;28;20363;-79
2022/09/29 09:14:10;;;;;;;5.55;3.10;;;;;;;20.63;67.26;64124.16;5038382;28;20554;-80
2022/09/29 09:16:50;;;;;;;4.35;2.97;;;;;;;20.52;67.20;64126.13;5042224;28;20227;-80
2022/09/29 09:19:40;;;;;;;5.90;2.75;;;;;;;20.60;63.74;64133.97;5046176;28;20216;-80
2022/09/29 09:22:24;;;;;;;3.20;2.90;;;;;;;20.47;65.36;64120.38;5038219;28;20222;-80
2022/09/29 09:24:59;;;;;;;7.45;2.72;;;;;;;20.42;64.59;64110.50;5032511;28;20190;-79
2022/09/29 09:27:31;;;;;;;5.88;2.40;;;;;;;20.42;64.63;64112.56;5046186;28;20394;-78
2022/09/29 09:30:04;;;;;;;4.85;2.85;;;;;;;20.24;64.86;64096.38;5046470;28;20197;-79
2022/09/29 09:32:38;;;;;;;5.40;2.83;;;;;;;19.77;66.84;64044.72;5047443;28;20279;-78
2022/09/29 09:35:17;;;;;;;3.33;3.05;;;;;;;19.91;68.65;64062.44;5048470;28;20197;-78
2022/09/29 09:37:45;;;;;;;3.50;3.05;;;;;;;20.29;69.80;64091.25;5046358;28;20217;-79
2022/09/29 09:40:18;;;;;;;8.93;2.92;;;;;;;20.57;68.59;64126.16;5046848;28;20201;-79
2022/09/29 09:42:49;;;;;;;5.75;2.75;;;;;;;20.76;71.08;64148.06;5050210;28;20313;-80
2022/09/29 09:45:27;;;;;;;4.07;2.70;;;;;;;20.72;71.25;64138.72;5047504;28;20216;-79
2022/09/29 09:48:03;;;;;;;2.88;2.60;;;;;;;20.90;68.00;64159.56;5046887;28;20228;-80
2022/09/29 09:50:30;;;;;;;4.82;2.92;;;;;;;21.06;67.42;64179.41;5049336;28;20204;-79
2022/09/29 09:53:03;;;;;;;5.45;2.60;;;;;;;21.24;65.35;64197.69;5045997;28;20283;-77
2022/09/29 09:55:33;;;;;;;3.85;2.88;;;;;;;21.41;70.31;64210.78;5047133;28;20203;-79
2022/09/29 09:58:12;;;;;;;3.72;3.00;;;;;;;21.33;66.28;64207.09;5043872;28;20328;-79
2022/09/29 10:00:43;;;;;;;3.13;2.63;;;;;;;21.49;66.90;64218.59;5047466;28;20212;-80
2022/09/29 10:03:13;;;;;;;3.83;2.67;;;;;;;21.72;65.60;64247.81;5044146;28;20210;-78
2022/09/29 10:05:44;;;;;;;4.45;3.20;;;;;;;21.67;65.68;64245.72;5045256;28;20253;-77
2022/09/29 10:08:15;;;;;;;6.25;2.58;;;;;;;21.84;63.71;64259.84;5039117;28;20288;-78
2022/09/29 10:10:42;;;;;;;2.85;2.33;;;;;;;22.16;56.75;64293.31;5041066;28;20529;-80
2022/09/29 10:13:12;;;;;;;4.93;2.35;;;;;;;22.35;57.01;64310.56;5030266;28;20222;-78
2022/09/29 10:15:46;;;;;;;4.40;2.13;;;;;;;22.46;53.84;64327.25;5035171;28;20208;-78
2022/09/29 10:18:17;;;;;;;5.10;2.03;;;;;;;22.42;53.14;64323.59;5038874;28;20229;-78
2022/09/29 10:20:44;;;;;;;4.47;1.85;;;;;;;22.37;54.60;64312.66;5044973;28;20209;-79
2022/09/29 10:23:26;;;;;;;3.80;2.53;;;;;;;22.60;56.23;64334.66;5042943;28;20264;-78
2022/09/29 10:25:57;;;;;;;3.00;2.67;;;;;;;22.68;53.23;64347.69;5048009;28;20205;-79
2022/09/29 10:28:27;;;;;;;7.20;2.92;;;;;;;22.55;50.83;64331.50;5032290;28;20293;-80
2022/09/29 10:30:55;;;;;;;5.78;2.53;;;;;;;22.69;50.31;64344.03;5051943;28;20206;-78
2022/09/29 10:33:26;;;;;;;2.40;2.20;;;;;;;22.68;50.50;64348.19;5042348;28;20230;-78
2022/09/29 10:36:07;;;;;;;4.88;2.10;;;;;;;23.00;50.45;64380.63;5044741;28;20195;-78
2022/09/29 10:38:36;;;;;;;2.50;2.33;;;;;;;22.88;49.12;64366.50;5052933;28;20252;-78
2022/09/29 10:41:05;;;;;;;2.22;1.50;;;;;;;23.00;48.39;64381.16;5033994;28;20198;-78
2022/09/29 10:43:37;;;;;;;2.38;2.03;;;;;;;23.25;48.91;64404.69;5041534;28;20541;-79
2022/09/29 10:46:04;;;;;;;2.65;1.55;;;;;;;23.60;46.71;64443.41;5048593;28;20209;-80
2022/09/29 10:48:33;;;;;;;2.38;2.17;;;;;;;23.60;45.32;64443.41;5047728;28;20482;-77
2022/09/29 10:51:01;;;;;;;3.95;2.35;;;;;;;23.60;46.16;64440.81;5046962;28;20201;-78
2022/09/29 10:53:35;;;;;;;4.68;2.10;;;;;;;24.03;44.49;64485.81;5047615;28;20231;-80
2022/09/29 10:56:08;;;;;;;2.00;1.90;;;;;;;23.54;45.02;64437.13;5048787;28;20204;-78
2022/09/29 10:58:39;;;;;;;4.35;2.22;;;;;;;23.62;46.05;64448.63;5033438;28;20286;-78
2022/09/29 11:01:10;;;;;;;2.45;2.22;;;;;;;24.02;47.06;64487.91;5044007;28;20225;-78
2022/09/29 11:03:41;;;;;;;2.72;2.47;;;;;;;24.09;44.92;64491.56;5046968;28;20224;-77
2022/09/29 11:06:11;;;;;;;5.50;2.00;;;;;;;24.30;44.92;64519.28;5045770;28;20197;-77
2022/09/29 11:09:00;;;;;;;3.35;2.00;;;;;;;24.53;44.58;64535.03;5049931;28;20240;-78
2022/09/29 11:11:29;;;;;;;2.65;2.45;;;;;;;24.69;41.76;64554.94;5047725;28;20220;-78
2022/09/29 11:13:58;;;;;;;2.22;2.05;;;;;;;24.91;42.12;64580.06;5046451;28;20401;-78
2022/09/29 11:16:29;;;;;;;6.63;2.22;;;;;;;24.81;41.37;64570.13;5041292;28;20225;-79
2022/09/29 11:19:02;;;;;;;2.00;1.83;;;;;;;25.08;41.54;64603.06;5046009;28;20374;-77
2022/09/29 11:21:59;;;;;;;3.50;2.03;;;;;;;24.85;39.79;64574.28;5046456;28;20197;-79
2022/09/29 11:24:38;;;;;;;3.03;2.33;;;;;;;24.82;40.42;64565.94;5047266;28;20198;-78
2022/09/29 11:27:15;;;;;;;2.25;2.15;;;;;;;24.74;40.94;64559.66;5047890;28;20381;-78
2022/09/29 11:29:50;;;;;;;2.58;2.22;;;;;;;25.06;40.58;64598.91;5047486;28;20244;-77
2022/09/29 11:32:34;;;;;;;2.92;2.25;;;;;;;25.36;42.01;64624.59;5049690;28;20231;-77
2022/09/29 11:35:24;;;;;;;3.05;2.40;;;;;;;25.73;42.62;64668.06;5044587;28;20189;-77
2022/09/29 11:38:03;;;;;;;2.33;2.17;;;;;;;26.23;39.52;64717.38;5026263;28;20229;-78
2022/09/29 11:40:35;;;;;;;4.88;2.03;;;;;;;26.46;38.41;64741.47;5044733;28;20194;-76
2022/09/29 11:43:20;;;;;;;1.98;1.60;;;;;;;26.59;37.08;64749.88;5039164;28;20432;-79
2022/09/29 11:45:56;;;;;;;1.70;1.60;;;;;;;26.13;37.69;64704.78;5046379;28;20244;-75
2022/09/29 11:48:47;;;;;;;3.47;1.60;;;;;;;25.61;39.79;64647.66;5048824;28;20238;-77